createdAt,value
2022-11-05T00:00:40.817Z,2.70
2022-11-05T00:03:28.038Z,2.50
2022-11-05T00:06:13.554Z,2.50
2022-11-05T00:08:59.563Z,2.40
2022-11-05T00:11:41.305Z,2.13
2022-11-05T00:14:26.425Z,2.87
2022-11-05T00:16:54.193Z,2.70
2022-11-05T00:19:23.358Z,2.60
2022-11-05T00:22:08.624Z,2.00
2022-11-05T00:24:54.231Z,2.30
2022-11-05T00:27:22.011Z,2.10
2022-11-05T00:29:49.775Z,2.30
2022-11-05T00:32:17.530Z,2.50
2022-11-05T00:34:46.624Z,2.30
2022-11-05T00:37:14.389Z,2.20
2022-11-05T00:39:42.131Z,2.07
2022-11-05T00:42:27.396Z,2.00
2022-11-05T00:45:02.402Z,2.30
2022-11-05T00:47:48.340Z,2.30
2022-11-05T00:50:18.290Z,2.13
2022-11-05T00:52:59.400Z,2.10
2022-11-05T00:55:34.679Z,2.23
2022-11-05T00:58:04.590Z,2.13
2022-11-05T01:00:34.011Z,2.10
2022-11-05T01:03:04.456Z,1.93
2022-11-05T01:05:34.941Z,1.90
2022-11-05T01:08:03.150Z,2.30
2022-11-05T01:10:31.668Z,2.17
2022-11-05T01:12:59.643Z,2.03
2022-11-05T01:15:27.555Z,2.00
2022-11-05T01:17:55.356Z,2.10
2022-11-05T01:20:23.519Z,2.07
2022-11-05T01:22:52.751Z,2.10
2022-11-05T01:25:20.642Z,2.27
2022-11-05T01:27:48.483Z,2.03
2022-11-05T01:30:16.413Z,2.10
2022-11-05T01:32:44.289Z,1.87
2022-11-05T01:35:15.223Z,2.13
2022-11-05T01:37:43.350Z,2.30
2022-11-05T01:40:15.299Z,1.90
2022-11-05T01:42:43.630Z,2.10
2022-11-05T01:45:18.133Z,2.13
2022-11-05T01:47:53.262Z,2.03
2022-11-05T01:50:31.281Z,1.90
2022-11-05T01:53:04.982Z,2.10
2022-11-05T01:55:39.116Z,2.20
2022-11-05T01:58:10.586Z,2.00
2022-11-05T02:00:38.885Z,2.00
2022-11-05T02:03:07.004Z,2.00
2022-11-05T02:05:35.570Z,2.07
2022-11-05T02:08:03.806Z,1.93
2022-11-05T02:10:32.126Z,1.90
2022-11-05T02:13:01.366Z,2.13
2022-11-05T02:15:42.785Z,2.13
2022-11-05T02:18:19.716Z,1.90
2022-11-05T02:20:58.621Z,1.90
2022-11-05T02:23:48.237Z,1.77
2022-11-05T02:26:51.673Z,1.70
2022-11-05T02:30:04.791Z,1.70
2022-11-05T02:32:42.011Z,1.90
2022-11-05T02:35:20.936Z,1.60
2022-11-05T02:37:54.338Z,1.57
2022-11-05T02:40:28.635Z,2.03
2022-11-05T02:43:02.505Z,1.97
2022-11-05T02:45:41.593Z,2.00
2022-11-05T02:48:18.129Z,1.83
2022-11-05T02:50:55.089Z,1.90
2022-11-05T02:53:35.032Z,1.87
2022-11-05T02:56:08.117Z,1.87
2022-11-05T02:58:36.286Z,1.80
2022-11-05T03:01:07.048Z,1.77
2022-11-05T03:03:38.872Z,2.13
2022-11-05T03:06:43.189Z,1.80
2022-11-05T03:09:29.369Z,1.77
2022-11-05T03:12:11.183Z,1.80
2022-11-05T03:14:43.980Z,2.40
2022-11-05T03:17:28.365Z,1.93
2022-11-05T03:20:09.171Z,1.97
2022-11-05T03:22:42.013Z,2.13
2022-11-05T03:25:15.558Z,2.20
2022-11-05T03:27:48.435Z,2.13
2022-11-05T03:30:19.043Z,2.10
2022-11-05T03:32:52.026Z,2.10
2022-11-05T03:35:25.275Z,2.10
2022-11-05T03:37:57.956Z,1.70
2022-11-05T03:40:27.354Z,1.77
2022-11-05T03:42:59.226Z,1.80
2022-11-05T03:45:32.148Z,2.00
2022-11-05T03:48:02.669Z,2.03
2022-11-05T03:50:41.309Z,2.00
2022-11-05T03:53:15.909Z,1.80
2022-11-05T03:55:53.638Z,2.03
2022-11-05T03:58:23.432Z,2.00
2022-11-05T04:00:52.042Z,2.10
2022-11-05T04:03:21.051Z,1.90
2022-11-05T04:06:12.318Z,2.10
2022-11-05T04:08:59.363Z,2.20
2022-11-05T04:11:41.193Z,2.20
2022-11-05T04:14:09.086Z,2.20
2022-11-05T04:16:53.780Z,2.47
2022-11-05T04:19:42.510Z,1.93
2022-11-05T04:22:29.007Z,2.40
2022-11-05T04:24:56.865Z,2.40
2022-11-05T04:27:24.718Z,2.30
2022-11-05T04:30:11.707Z,2.40
2022-11-05T04:32:39.491Z,2.70
2022-11-05T04:35:07.546Z,2.40
2022-11-05T04:37:36.684Z,2.37
2022-11-05T04:40:04.753Z,2.60
2022-11-05T04:42:32.628Z,2.33
2022-11-05T04:45:00.513Z,2.40
2022-11-05T04:47:28.351Z,2.60
2022-11-05T04:49:56.239Z,2.37
2022-11-05T04:52:24.068Z,2.40
2022-11-05T04:54:53.304Z,2.50
2022-11-05T04:57:21.088Z,2.70
2022-11-05T04:59:49.604Z,2.47
2022-11-05T05:02:17.680Z,2.30
2022-11-05T05:04:46.148Z,2.97
2022-11-05T05:07:14.077Z,2.90
2022-11-05T05:09:41.878Z,3.00
2022-11-05T05:12:11.153Z,3.17
2022-11-05T05:14:39.014Z,3.20
2022-11-05T05:17:06.952Z,3.60
2022-11-05T05:19:55.397Z,3.53
2022-11-05T05:22:22.245Z,3.60
2022-11-05T05:24:52.730Z,4.00
2022-11-05T05:27:22.792Z,4.20
2022-11-05T05:29:50.709Z,4.50
2022-11-05T05:32:18.537Z,4.73
2022-11-05T05:34:46.316Z,4.63
2022-11-05T05:37:14.153Z,5.80
2022-11-05T05:39:42.024Z,4.83
2022-11-05T05:42:09.902Z,5.10
2022-11-05T05:44:39.424Z,5.10
2022-11-05T05:47:07.199Z,4.93
2022-11-05T05:49:35.126Z,5.60
2022-11-05T05:52:03.028Z,4.70
2022-11-05T05:54:33.447Z,5.07
2022-11-05T05:57:02.853Z,4.53
2022-11-05T05:59:30.894Z,5.07
2022-11-05T06:02:00.547Z,4.67
2022-11-05T06:04:28.513Z,5.10
2022-11-05T06:06:56.392Z,5.73
2022-11-05T06:09:24.192Z,7.03
2022-11-05T06:11:52.114Z,5.20
2022-11-05T06:14:19.876Z,5.33
2022-11-05T06:16:47.925Z,6.80
2022-11-05T06:19:17.382Z,5.40
2022-11-05T06:21:45.306Z,13.40
2022-11-05T06:24:13.116Z,6.77
2022-11-05T06:26:43.842Z,6.23
2022-11-05T06:29:11.720Z,6.17
2022-11-05T06:31:39.457Z,6.60
2022-11-05T06:34:07.371Z,6.90
2022-11-05T06:36:36.509Z,5.97
2022-11-05T06:39:05.022Z,6.03
2022-11-05T06:41:45.626Z,6.77
2022-11-05T06:44:22.391Z,6.50
2022-11-05T06:46:50.203Z,5.90
2022-11-05T06:49:17.956Z,6.23
2022-11-05T06:51:47.119Z,5.63
2022-11-05T06:54:14.893Z,4.97
2022-11-05T06:56:42.655Z,5.20
2022-11-05T06:59:10.609Z,5.33
2022-11-05T07:01:38.481Z,5.57
2022-11-05T07:04:06.421Z,5.10
2022-11-05T07:06:36.987Z,5.43
2022-11-05T07:09:06.460Z,5.27
2022-11-05T07:11:34.275Z,5.80
2022-11-05T07:14:02.392Z,5.40
2022-11-05T07:16:30.269Z,5.53
2022-11-05T07:18:58.194Z,5.13
2022-11-05T07:21:26.086Z,5.57
2022-11-05T07:23:53.889Z,5.13
2022-11-05T07:26:23.084Z,5.20
2022-11-05T07:28:50.961Z,5.57
2022-11-05T07:31:18.726Z,9.10
2022-11-05T07:33:46.657Z,6.67
2022-11-05T07:36:14.850Z,9.00
2022-11-05T07:38:43.398Z,5.83
2022-11-05T07:41:11.182Z,7.37
2022-11-05T07:43:40.356Z,6.80
2022-11-05T07:46:12.734Z,7.50
2022-11-05T07:48:42.087Z,8.33
2022-11-05T07:51:09.888Z,6.10
2022-11-05T07:53:42.449Z,5.53
2022-11-05T07:56:12.965Z,6.40
2022-11-05T07:58:42.179Z,5.77
2022-11-05T08:01:10.196Z,5.77
2022-11-05T08:03:38.222Z,6.63
2022-11-05T08:06:06.444Z,5.93
2022-11-05T08:08:34.204Z,13.67
2022-11-05T08:11:05.639Z,5.77
2022-11-05T08:13:34.023Z,6.70
2022-11-05T08:16:03.903Z,6.20
2022-11-05T08:18:32.900Z,6.20
2022-11-05T08:21:02.193Z,6.60
2022-11-05T08:23:31.324Z,6.50
2022-11-05T08:25:59.553Z,6.23
2022-11-05T08:28:27.641Z,6.97
2022-11-05T08:30:57.551Z,6.10
2022-11-05T08:33:27.475Z,5.30
2022-11-05T08:35:55.290Z,5.13
2022-11-05T08:38:23.136Z,5.20
2022-11-05T08:40:56.473Z,5.30
2022-11-05T08:43:24.271Z,4.40
2022-11-05T08:45:52.143Z,4.50
2022-11-05T08:48:20.361Z,5.70
2022-11-05T08:50:50.223Z,3.90
2022-11-05T08:53:18.496Z,4.67
2022-11-05T08:55:47.676Z,4.10
2022-11-05T08:58:17.271Z,3.93
2022-11-05T09:00:48.287Z,4.17
2022-11-05T09:03:16.590Z,4.10
2022-11-05T09:05:48.661Z,3.90
2022-11-05T09:08:25.651Z,3.90
2022-11-05T09:10:53.554Z,3.27
2022-11-05T09:13:21.777Z,3.57
2022-11-05T09:15:50.297Z,3.90
2022-11-05T09:18:19.774Z,2.47
2022-11-05T09:20:48.891Z,2.50
2022-11-05T09:23:20.982Z,2.90
2022-11-05T09:25:48.841Z,2.57
2022-11-05T09:28:18.459Z,2.20
2022-11-05T09:30:48.485Z,2.20
2022-11-05T09:33:17.146Z,2.20
2022-11-05T09:35:45.504Z,2.27
2022-11-05T09:38:13.957Z,2.60
2022-11-05T09:40:50.000Z,5.30
2022-11-05T09:43:21.411Z,2.60
2022-11-05T09:45:53.234Z,2.97
2022-11-05T09:48:24.706Z,3.10
2022-11-05T09:50:54.151Z,2.90
2022-11-05T09:53:24.324Z,3.00
2022-11-05T09:55:56.095Z,3.20
2022-11-05T09:58:30.335Z,3.13
2022-11-05T10:00:59.203Z,2.70
2022-11-05T10:03:31.048Z,2.70
2022-11-05T10:06:06.882Z,2.50
2022-11-05T10:08:42.214Z,3.10
2022-11-05T10:11:17.262Z,3.23
2022-11-05T10:13:48.799Z,3.20
2022-11-05T10:16:24.795Z,3.70
2022-11-05T10:18:56.214Z,3.70
2022-11-05T10:21:44.223Z,3.93
2022-11-05T10:24:15.781Z,4.60
2022-11-05T10:26:48.671Z,4.03
2022-11-05T10:29:23.751Z,3.77
2022-11-05T10:31:54.076Z,4.00
2022-11-05T10:34:25.124Z,4.37
2022-11-05T10:36:54.319Z,4.37
2022-11-05T10:39:23.378Z,7.80
2022-11-05T10:42:18.407Z,11.50
2022-11-05T10:44:52.319Z,3.93
2022-11-05T10:47:40.132Z,4.20
2022-11-05T10:50:12.011Z,3.97
2022-11-05T10:52:44.116Z,3.90
2022-11-05T10:55:17.613Z,3.60
2022-11-05T10:57:49.401Z,3.90
2022-11-05T11:00:28.309Z,3.77
2022-11-05T11:02:59.062Z,3.63
2022-11-05T11:05:30.149Z,6.10
2022-11-05T11:08:02.530Z,3.90
2022-11-05T11:10:33.743Z,2.93
2022-11-05T11:13:03.331Z,3.43
2022-11-05T11:15:32.703Z,2.90
2022-11-05T11:18:31.512Z,2.87
2022-11-05T11:21:13.558Z,2.60
2022-11-05T11:23:42.975Z,2.90
2022-11-05T11:26:12.818Z,2.70
2022-11-05T11:28:47.056Z,4.00
2022-11-05T11:31:17.349Z,2.50
2022-11-05T11:33:48.047Z,2.60
2022-11-05T11:36:18.645Z,2.70
2022-11-05T11:38:47.070Z,6.53
2022-11-05T11:41:26.423Z,2.97
2022-11-05T11:44:00.921Z,4.80
2022-11-05T11:46:33.778Z,2.73
2022-11-05T11:49:02.777Z,2.10
2022-11-05T11:51:37.623Z,2.70
2022-11-05T11:54:06.587Z,2.43
2022-11-05T11:56:44.527Z,2.80
2022-11-05T11:59:40.489Z,2.80
2022-11-05T12:02:45.950Z,2.83
2022-11-05T12:05:27.160Z,2.90
2022-11-05T12:07:58.089Z,2.70
2022-11-05T12:10:48.138Z,3.07
2022-11-05T12:13:43.583Z,3.03
2022-11-05T12:16:21.600Z,2.50
2022-11-05T12:18:56.978Z,2.60
2022-11-05T12:21:51.849Z,2.60
2022-11-05T12:24:58.851Z,2.90
2022-11-05T12:27:42.668Z,2.70
2022-11-05T12:30:13.805Z,2.73
2022-11-05T12:32:56.012Z,2.70
2022-11-05T12:35:35.352Z,3.00
2022-11-05T12:38:13.741Z,2.97
2022-11-05T12:40:53.507Z,2.60
2022-11-05T12:43:31.195Z,2.70
2022-11-05T12:46:05.253Z,5.47
2022-11-05T12:48:53.193Z,7.47
2022-11-05T12:51:35.517Z,2.50
2022-11-05T12:54:15.993Z,2.43
2022-11-05T12:56:47.974Z,2.60
2022-11-05T12:59:22.641Z,4.63
2022-11-05T13:01:56.110Z,2.90
2022-11-05T13:04:35.201Z,2.80
2022-11-05T13:07:07.545Z,2.50
2022-11-05T13:09:41.023Z,2.10
2022-11-05T13:12:12.779Z,2.30
2022-11-05T13:14:46.633Z,2.40
2022-11-05T13:17:18.103Z,2.33
2022-11-05T13:19:53.508Z,2.47
2022-11-05T13:22:34.316Z,2.13
2022-11-05T13:25:07.233Z,2.20
2022-11-05T13:27:52.909Z,1.90
2022-11-05T13:30:22.957Z,2.27
2022-11-05T13:32:59.694Z,2.30
2022-11-05T13:35:32.630Z,6.97
2022-11-05T13:38:23.781Z,2.20
2022-11-05T13:41:05.088Z,1.83
2022-11-05T13:43:53.350Z,1.80
2022-11-05T13:46:33.292Z,2.00
2022-11-05T13:49:37.999Z,1.90
2022-11-05T13:52:24.930Z,1.87
2022-11-05T13:55:16.995Z,1.90
2022-11-05T13:58:22.486Z,2.00
2022-11-05T14:01:04.697Z,4.43
2022-11-05T14:03:32.942Z,3.20
2022-11-05T14:06:04.537Z,2.33
2022-11-05T14:08:40.867Z,2.20
2022-11-05T14:11:20.735Z,1.93
2022-11-05T14:13:54.083Z,2.30
2022-11-05T14:16:23.984Z,2.27
2022-11-05T14:18:56.286Z,1.80
2022-11-05T14:21:48.230Z,1.87
2022-11-05T14:24:44.176Z,1.83
2022-11-05T14:27:34.312Z,2.00
2022-11-05T14:30:03.446Z,2.23
2022-11-05T14:32:44.723Z,2.07
2022-11-05T14:35:38.468Z,1.73
2022-11-05T14:38:07.899Z,1.60
2022-11-05T14:40:42.366Z,1.80
2022-11-05T14:43:21.503Z,1.90
2022-11-05T14:45:58.420Z,1.83
2022-11-05T14:48:37.498Z,1.77
2022-11-05T14:51:25.403Z,1.90
2022-11-05T14:54:02.161Z,2.00
2022-11-05T14:56:43.356Z,1.80
2022-11-05T14:59:52.737Z,1.50
2022-11-05T15:02:24.013Z,1.80
2022-11-05T15:04:53.193Z,1.80
2022-11-05T15:07:34.586Z,2.07
2022-11-05T15:10:10.666Z,2.40
2022-11-05T15:12:45.644Z,2.33
2022-11-05T15:15:23.838Z,2.63
2022-11-05T15:18:01.644Z,3.00
2022-11-05T15:20:40.223Z,3.10
2022-11-05T15:23:12.978Z,3.57
2022-11-05T15:25:52.977Z,3.73
2022-11-05T15:28:30.246Z,4.40
2022-11-05T15:31:00.447Z,4.43
2022-11-05T15:33:28.834Z,4.33
2022-11-05T15:36:12.303Z,4.90
2022-11-05T15:38:52.093Z,5.30
2022-11-05T15:41:34.433Z,5.27
2022-11-05T15:44:03.854Z,4.90
2022-11-05T15:46:32.079Z,4.97
2022-11-05T15:49:03.368Z,5.70
2022-11-05T15:51:31.567Z,6.33
2022-11-05T15:54:28.621Z,6.70
2022-11-05T15:56:52.453Z,7.13
2022-11-05T15:59:23.247Z,6.63
2022-11-05T16:01:56.432Z,7.60
2022-11-05T16:04:26.481Z,7.60
2022-11-05T16:06:58.372Z,7.83
2022-11-05T16:09:28.115Z,7.77
2022-11-05T16:12:24.146Z,7.90
2022-11-05T16:15:01.540Z,7.73
2022-11-05T16:17:32.990Z,7.60
2022-11-05T16:20:00.904Z,7.87
2022-11-05T16:22:47.703Z,8.03
2022-11-05T16:25:30.047Z,8.00
2022-11-05T16:27:58.437Z,8.40
2022-11-05T16:30:28.210Z,8.67
2022-11-05T16:33:03.469Z,9.00
2022-11-05T16:35:31.428Z,7.77
2022-11-05T16:38:02.669Z,7.47
2022-11-05T16:40:33.344Z,6.43
2022-11-05T16:43:16.510Z,6.97
2022-11-05T16:45:45.720Z,6.23
2022-11-05T16:48:14.916Z,6.50
2022-11-05T16:50:43.423Z,6.23
2022-11-05T16:53:12.078Z,7.37
2022-11-05T16:55:42.167Z,7.37
2022-11-05T16:58:19.594Z,6.37
2022-11-05T17:00:50.694Z,6.20
2022-11-05T17:03:19.099Z,7.57
2022-11-05T17:05:47.476Z,7.17
2022-11-05T17:08:15.533Z,7.77
2022-11-05T17:10:43.728Z,7.20
2022-11-05T17:13:15.355Z,7.03
2022-11-05T17:15:45.041Z,8.00
2022-11-05T17:18:18.600Z,8.23
2022-11-05T17:20:49.205Z,7.80
2022-11-05T17:23:18.664Z,8.00
2022-11-05T17:25:48.341Z,8.90
2022-11-05T17:28:16.713Z,8.97
2022-11-05T17:30:51.665Z,8.20
2022-11-05T17:33:23.001Z,8.77
2022-11-05T17:35:51.608Z,8.93
2022-11-05T17:38:20.352Z,7.80
2022-11-05T17:40:49.082Z,7.87
2022-11-05T17:43:16.963Z,6.90
2022-11-05T17:45:46.941Z,6.50
2022-11-05T17:48:15.622Z,6.90
2022-11-05T17:50:46.469Z,8.37
2022-11-05T17:53:15.535Z,8.60
2022-11-05T17:55:44.877Z,8.37
2022-11-05T17:58:13.066Z,8.57
2022-11-05T18:00:42.795Z,10.20
2022-11-05T18:03:11.626Z,10.70
2022-11-05T18:05:40.418Z,9.60
2022-11-05T18:08:10.186Z,10.13
2022-11-05T18:10:38.713Z,9.30
2022-11-05T18:13:07.538Z,8.90
2022-11-05T18:15:38.044Z,8.90
2022-11-05T18:18:05.958Z,8.57
2022-11-05T18:20:34.146Z,8.33
2022-11-05T18:23:02.101Z,8.20
2022-11-05T18:25:31.361Z,8.00
2022-11-05T18:27:59.308Z,8.10
2022-11-05T18:30:29.548Z,8.33
2022-11-05T18:32:57.469Z,7.60
2022-11-05T18:35:25.306Z,7.20
2022-11-05T18:37:53.219Z,8.30
2022-11-05T18:40:21.241Z,8.00
2022-11-05T18:42:50.530Z,9.00
2022-11-05T18:45:18.366Z,9.40
2022-11-05T18:47:46.209Z,9.07
2022-11-05T18:50:14.111Z,8.13
2022-11-05T18:52:41.969Z,8.47
2022-11-05T18:55:10.798Z,8.57
2022-11-05T18:57:39.152Z,8.47
2022-11-05T19:00:09.995Z,7.60
2022-11-05T19:02:40.733Z,8.07
2022-11-05T19:07:57.361Z,7.00
2022-11-05T19:10:25.184Z,6.40
2022-11-05T19:12:53.135Z,6.63
2022-11-05T19:15:22.712Z,6.93
2022-11-05T19:17:50.544Z,7.50
2022-11-05T19:20:18.350Z,7.97
2022-11-05T19:22:46.147Z,6.80
2022-11-05T19:25:14.091Z,7.57
2022-11-05T19:27:43.680Z,6.73
2022-11-05T19:30:12.684Z,7.57
2022-11-05T19:32:42.193Z,7.23
2022-11-05T19:35:10.393Z,8.00
2022-11-05T19:37:38.249Z,6.83
2022-11-05T19:40:07.384Z,7.03
2022-11-05T19:42:35.231Z,7.80
2022-11-05T19:45:22.867Z,7.60
2022-11-05T19:47:52.198Z,7.60
2022-11-05T19:50:20.095Z,7.80
2022-11-05T19:52:47.941Z,7.30
2022-11-05T19:55:17.489Z,7.63
2022-11-05T19:57:45.344Z,8.17
2022-11-05T20:00:14.615Z,8.07
2022-11-05T20:02:45.228Z,8.37
2022-11-05T20:05:15.032Z,8.67
2022-11-05T20:07:44.223Z,8.83
2022-11-05T20:10:14.811Z,8.40
2022-11-05T20:12:42.701Z,9.13
2022-11-05T20:15:11.145Z,8.53
2022-11-05T20:17:39.205Z,9.50
2022-11-05T20:20:08.561Z,9.53
2022-11-05T20:22:38.380Z,9.23
2022-11-05T20:25:07.245Z,9.73
2022-11-05T20:27:35.109Z,9.73
2022-11-05T20:30:02.978Z,10.10
2022-11-05T20:32:30.943Z,10.33
2022-11-05T20:34:58.830Z,10.40
2022-11-05T20:37:26.705Z,10.77
2022-11-05T20:39:56.091Z,10.40
2022-11-05T20:42:23.980Z,9.67
2022-11-05T20:44:51.787Z,10.70
2022-11-05T20:47:19.702Z,10.30
2022-11-05T20:49:47.500Z,10.53
2022-11-05T20:52:17.133Z,10.57
2022-11-05T20:54:45.223Z,10.23
2022-11-05T20:57:14.481Z,10.23
2022-11-05T20:59:42.288Z,10.40
2022-11-05T21:02:10.580Z,10.83
2022-11-05T21:04:57.897Z,11.00
2022-11-05T21:07:25.712Z,12.07
2022-11-05T21:09:53.519Z,10.50
2022-11-05T21:12:23.085Z,12.73
2022-11-05T21:14:51.040Z,12.67
2022-11-05T21:17:19.801Z,13.57
2022-11-05T21:19:47.642Z,16.57
2022-11-05T21:22:16.187Z,11.90
2022-11-05T21:24:44.247Z,11.30
2022-11-05T21:27:12.014Z,17.07
2022-11-05T21:29:41.231Z,11.57
2022-11-05T21:32:09.105Z,11.00
2022-11-05T21:34:36.885Z,11.97
2022-11-05T21:37:05.587Z,11.40
2022-11-05T21:39:34.807Z,11.67
2022-11-05T21:42:02.956Z,12.63
2022-11-05T21:44:30.819Z,12.30
2022-11-05T21:47:00.249Z,12.53
2022-11-05T21:49:28.148Z,12.60
2022-11-05T21:52:13.346Z,12.30
2022-11-05T21:54:58.783Z,10.73
2022-11-05T21:57:44.141Z,9.57
2022-11-05T22:00:13.954Z,8.73
2022-11-05T22:02:43.362Z,8.70
2022-11-05T22:05:11.313Z,11.27
2022-11-05T22:07:40.271Z,13.10
2022-11-05T22:10:15.862Z,12.20
2022-11-05T22:12:46.194Z,9.93
2022-11-05T22:15:14.443Z,11.13
2022-11-05T22:17:46.979Z,11.17
2022-11-05T22:20:16.213Z,12.07
2022-11-05T22:22:44.291Z,12.43
2022-11-05T22:25:12.867Z,11.73
2022-11-05T22:27:40.852Z,11.40
2022-11-05T22:30:09.583Z,11.63
2022-11-05T22:32:38.619Z,11.23
2022-11-05T22:35:08.873Z,12.37
2022-11-05T22:37:36.743Z,10.90
2022-11-05T22:40:05.117Z,12.20
2022-11-05T22:42:32.935Z,16.03
2022-11-05T22:45:00.921Z,10.20
2022-11-05T22:47:28.790Z,15.13
2022-11-05T22:49:56.883Z,12.90
2022-11-05T22:52:26.087Z,11.97
2022-11-05T22:54:53.953Z,11.87
2022-11-05T22:57:21.750Z,12.33
2022-11-05T22:59:49.771Z,13.23
2022-11-05T23:02:17.696Z,11.70
2022-11-05T23:04:45.543Z,11.73
2022-11-05T23:07:30.888Z,11.97
2022-11-05T23:10:17.722Z,13.00
2022-11-05T23:12:45.831Z,11.83
2022-11-05T23:15:34.337Z,10.30
2022-11-05T23:18:19.612Z,9.97
2022-11-05T23:21:05.074Z,9.40
2022-11-05T23:23:50.552Z,9.43
2022-11-05T23:26:37.368Z,9.63
2022-11-05T23:29:05.354Z,9.73
2022-11-05T23:31:51.013Z,9.93
2022-11-05T23:34:18.795Z,8.77
2022-11-05T23:37:04.029Z,8.33
2022-11-05T23:39:31.808Z,8.20
2022-11-05T23:42:33.152Z,8.07
2022-11-05T23:45:18.644Z,7.90
2022-11-05T23:48:04.038Z,7.33
2022-11-05T23:50:37.154Z,7.37
2022-11-05T23:53:07.856Z,7.30
2022-11-05T23:55:35.595Z,6.73
2022-11-05T23:58:05.057Z,6.87
